Laconia, NH (03247)

8:04 PM EST on January 18, 2017 (GMT -0500)
MPOON3 | | Change Station
Active Advisory: Special Statement

Elev 469 ft 43.57 °N, 71.36 °W | Updated 36 minutes ago

Light Snow
Light Snow Mist
27.0 °F
Feels Like 27 °F
N
-
Wind Variable Wind from North

Today
High -- | Low -- °F
--% Chance of Precip.
Yesterday
High -- | Low -- °F
Precip. -- in
Pressure 30.12 in
Visibility 3.0 miles
Clouds Mostly Cloudy 800 ft
Mostly Cloudy 1500 ft
Overcast 6000 ft
Windchill 27 °F
Dew Point Not available.
Humidity Not available.
Rainfall in
Snow Depth Not available.
7:13 AM 4:38 PM
Waning Gibbous, 58% visible
METAR KLCI 190056Z AUTO 07007KT 3SM -SN BR BKN008 BKN015 OVC060 M03/M04 A3006 RMK AO2 CIG 005V011 SLP199 P0000 T10281039 FZRANO
Pressure 30.12 in
Visibility 3.0 miles
Clouds Mostly Cloudy 800 ft
Mostly Cloudy 1500 ft
Overcast 6000 ft
Windchill 27 °F
Dew Point Not available.
Humidity Not available.
Rainfall in
Snow Depth Not available.
7:13 AM 4:38 PM
Waning Gibbous, 58% visible
METAR KLCI 190056Z AUTO 07007KT 3SM -SN BR BKN008 BKN015 OVC060 M03/M04 A3006 RMK AO2 CIG 005V011 SLP199 P0000 T10281039 FZRANO

Get Your Daily Forecast Email!

Thanks for signing up!

Be on the lookout for a verification email in your inbox.

You'll start receiving the daily forecast at 8 AM.

×

10-Day Weather Forecast

Almanac

Astronomy

Jan. 18, 2017 Rise Set
Actual Time
Civil Twilight
Nautical Twilight
Astronomical Twilight
Moon
Length of Visible Light
Length of Day
Tomorrow will be .
, % of the Moon is Illuminated

Today's Extremes

State Highs State Lows

Community

WunderPhotos

Upload Photos

1,962,540 photos uploaded!

WunderBlog® & News

Nearby

Air Quality

  Air Quality AQ Index Pollutant
Not available.

Snow Depth

Station Depth Elevation

Earthquake Activity

City Distance Mag. Time & Date
Minimum magnitude displayed is 2.5.

Coastal Water Temperatures

Place Temperature

Stations

Nearby Weather Stations

Station Location Temp. Windchill Dew Point Humidity Wind Precip. Elev Updated Type
                   

Watches & Warnings

Special Statement
Issued: 6:43 PM EST Jan. 18, 2017 – National Weather Service

Light freezing drizzle may be possible this evening as well as
very light additional snowfall. Travel will be treacherous. Use
caution on roadways and sidewalks through the early morning hours.


Hanes


643 PM EST Wed Jan 18 2017

Light freezing drizzle may be possible this evening as well as
very light additional snowfall. Travel will be treacherous. Use
caution on roadways and sidewalks through the early morning hours.


Hanes


643 PM EST Wed Jan 18 2017

Light freezing drizzle may be possible this evening as well as
very light additional snowfall. Travel will be treacherous. Use
caution on roadways and sidewalks through the early morning hours.


Hanes